Time;durP1;ratioP1;P1;durP2;ratioP2;P2;SDS_P1;SDS_P2;PMS_P1;PMS_P2;Temp;Humidity;BMP_temperature;BMP_pressure;BME280_temperature;BME280_humidity;BME280_pressure;Samples;Min_cycle;Max_cycle;Signal;HPM_P1;HPM_P2
2022/05/25 00:00:23;;;;;;;5.93;4.47;;;;;;;;;;5085417;28;20054;-62
2022/05/25 00:02:49;;;;;;;6.00;5.28;;;;;;;;;;5079962;28;20085;-62
2022/05/25 00:05:16;;;;;;;5.10;4.60;;;;;;;;;;5090038;28;20035;-63
2022/05/25 00:07:42;;;;;;;6.25;4.30;;;;;;;;;;5079453;28;20037;-62
2022/05/25 00:10:08;;;;;;;5.20;4.50;;;;;;;;;;5093206;28;20466;-62
2022/05/25 00:12:34;;;;;;;5.60;4.72;;;;;;;;;;5080340;28;20043;-63
2022/05/25 00:15:00;;;;;;;5.25;4.47;;;;;;;;;;5100666;28;20040;-62
2022/05/25 00:17:26;;;;;;;4.85;4.20;;;;;;;;;;5087488;28;20048;-62
2022/05/25 00:19:59;;;;;;;6.53;4.60;;;;;;;;;;5088461;28;20036;-62
2022/05/25 00:22:25;;;;;;;5.93;4.25;;;;;;;;;;5079640;28;20461;-62
2022/05/25 00:24:51;;;;;;;5.38;4.88;;;;;;;;;;5098117;28;20039;-63
2022/05/25 00:27:20;;;;;;;5.43;4.03;;;;;;;;;;5084873;28;20513;-62
2022/05/25 00:29:46;;;;;;;6.43;5.38;;;;;;;;;;5085714;28;20082;-62
2022/05/25 00:32:12;;;;;;;5.22;4.72;;;;;;;;;;5112300;22;20063;-64
2022/05/25 00:34:38;;;;;;;7.13;4.78;;;;;;;;;;5076321;28;20036;-63
2022/05/25 00:37:04;;;;;;;5.03;4.40;;;;;;;;;;5079691;28;21563;-63
2022/05/25 00:39:30;;;;;;;6.88;4.60;;;;;;;;;;5089392;28;20497;-63
2022/05/25 00:41:56;;;;;;;5.40;4.82;;;;;;;;;;5081270;28;20047;-63
2022/05/25 00:44:22;;;;;;;5.07;4.57;;;;;;;;;;5072521;28;20367;-63
2022/05/25 00:46:48;;;;;;;6.43;4.80;;;;;;;;;;5072208;28;20064;-64
2022/05/25 00:49:19;;;;;;;5.88;4.72;;;;;;;;;;5072773;28;20036;-63
2022/05/25 00:51:48;;;;;;;5.20;4.70;;;;;;;;;;5069506;28;20464;-63
2022/05/25 00:54:16;;;;;;;5.22;4.40;;;;;;;;;;5066450;28;20465;-63
2022/05/25 00:56:44;;;;;;;5.35;4.65;;;;;;;;;;5062132;28;20033;-63
2022/05/25 00:59:16;;;;;;;6.50;4.40;;;;;;;;;;5072743;28;20412;-63
2022/05/25 01:01:42;;;;;;;5.32;4.65;;;;;;;;;;5068709;28;20505;-63
2022/05/25 01:04:09;;;;;;;5.20;4.45;;;;;;;;;;5076933;28;20448;-63
2022/05/25 01:06:54;;;;;;;5.60;4.80;;;;;;;;;;5078876;28;20040;-63
2022/05/25 01:09:29;;;;;;;6.47;5.05;;;;;;;;;;5075212;28;20036;-64
2022/05/25 01:11:58;;;;;;;7.35;5.00;;;;;;;;;;5069374;28;20139;-64
2022/05/25 01:14:27;;;;;;;5.22;4.72;;;;;;;;;;5069330;28;20036;-63
2022/05/25 01:17:03;;;;;;;6.88;5.25;;;;;;;;;;5050019;28;20072;-63
2022/05/25 01:19:38;;;;;;;7.25;5.30;;;;;;;;;;5062381;28;20094;-63
2022/05/25 01:22:22;;;;;;;6.90;4.82;;;;;;;;;;5069204;28;20079;-63
2022/05/25 01:25:12;;;;;;;6.93;5.03;;;;;;;;;;5062804;28;20033;-63
2022/05/25 01:27:39;;;;;;;6.35;4.95;;;;;;;;;;5066426;28;20047;-63
2022/05/25 01:30:28;;;;;;;7.57;6.32;;;;;;;;;;5067480;28;20485;-63
2022/05/25 01:33:03;;;;;;;5.97;5.30;;;;;;;;;;5061562;28;20041;-63
2022/05/25 01:35:34;;;;;;;5.72;5.13;;;;;;;;;;5071732;28;20037;-63
2022/05/25 01:38:13;;;;;;;7.80;5.88;;;;;;;;;;5068425;28;20059;-63
2022/05/25 01:40:51;;;;;;;8.05;5.50;;;;;;;;;;5070371;28;20056;-63
2022/05/25 01:43:20;;;;;;;8.10;6.30;;;;;;;;;;5070041;28;20116;-63
2022/05/25 01:45:51;;;;;;;6.97;5.75;;;;;;;;;;5070376;28;20037;-63
2022/05/25 01:48:19;;;;;;;7.13;6.13;;;;;;;;;;5056967;28;20033;-63
2022/05/25 01:50:48;;;;;;;8.10;6.47;;;;;;;;;;5050082;28;20044;-63
2022/05/25 01:53:15;;;;;;;10.23;7.55;;;;;;;;;;5066081;28;20123;-63
2022/05/25 01:55:46;;;;;;;8.95;6.28;;;;;;;;;;5069322;28;20047;-63
2022/05/25 01:58:14;;;;;;;7.63;6.82;;;;;;;;;;5063636;28;20036;-63
2022/05/25 02:00:42;;;;;;;7.60;6.80;;;;;;;;;;5044217;28;20040;-63
2022/05/25 02:06:12;;;;;;;7.93;6.32;;;;;;;;;;5074087;28;20048;-63
2022/05/25 02:08:43;;;;;;;8.43;6.70;;;;;;;;;;5054299;28;20064;-63
2022/05/25 02:11:28;;;;;;;10.30;7.45;;;;;;;;;;5076970;28;20041;-63
2022/05/25 02:14:09;;;;;;;9.80;7.05;;;;;;;;;;5072035;28;20040;-63
2022/05/25 02:16:35;;;;;;;;;;;;;;;;;;5054584;28;20044;-63
2022/05/25 02:19:20;;;;;;;8.27;7.03;;;;;;;;;;5062082;28;19924;-63
2022/05/25 02:21:57;;;;;;;7.82;6.82;;;;;;;;;;5066549;28;20043;-63
2022/05/25 02:24:41;;;;;;;9.05;7.13;;;;;;;;;;5060971;28;20478;-63
2022/05/25 02:27:10;;;;;;;8.38;7.30;;;;;;;;;;5071110;28;20436;-63
2022/05/25 02:29:38;;;;;;;9.75;6.78;;;;;;;;;;5068992;28;20032;-63
2022/05/25 02:32:13;;;;;;;9.07;7.28;;;;;;;;;;5070327;28;20037;-63
2022/05/25 02:34:41;;;;;;;8.20;6.68;;;;;;;;;;5069780;28;20560;-63
2022/05/25 02:37:08;;;;;;;9.25;7.05;;;;;;;;;;5070548;28;20036;-63
2022/05/25 02:39:34;;;;;;;6.95;6.25;;;;;;;;;;5064143;28;20031;-63
2022/05/25 02:42:00;;;;;;;10.40;6.50;;;;;;;;;;5062980;28;20378;-64
2022/05/25 02:44:26;;;;;;;7.88;7.00;;;;;;;;;;5063054;28;20041;-63
2022/05/25 02:46:53;;;;;;;8.75;7.65;;;;;;;;;;5058942;28;20048;-63
2022/05/25 02:49:19;;;;;;;10.45;8.30;;;;;;;;;;5070218;28;20036;-63
2022/05/25 02:51:45;;;;;;;10.88;8.20;;;;;;;;;;5060911;28;20060;-63
2022/05/25 02:54:11;;;;;;;9.02;7.90;;;;;;;;;;5044709;28;22485;-63
2022/05/25 02:56:38;;;;;;;9.43;8.40;;;;;;;;;;5065443;28;20482;-63
2022/05/25 02:59:04;;;;;;;12.43;8.93;;;;;;;;;;5069975;28;20086;-63
2022/05/25 03:01:30;;;;;;;9.50;8.20;;;;;;;;;;5069283;28;20098;-63
2022/05/25 03:03:56;;;;;;;12.75;9.05;;;;;;;;;;5069507;28;20040;-63
2022/05/25 03:06:22;;;;;;;11.85;9.77;;;;;;;;;;5074881;28;20044;-63
2022/05/25 03:08:48;;;;;;;12.00;9.50;;;;;;;;;;5069031;28;20036;-63
2022/05/25 03:11:14;;;;;;;10.32;8.63;;;;;;;;;;5065794;28;20037;-63
2022/05/25 03:13:45;;;;;;;12.68;9.88;;;;;;;;;;5066414;28;20093;-63
2022/05/25 03:16:13;;;;;;;13.88;10.30;;;;;;;;;;5070565;28;20044;-63
2022/05/25 03:18:39;;;;;;;12.02;9.95;;;;;;;;;;5050437;28;20060;-63
2022/05/25 03:21:05;;;;;;;10.82;9.15;;;;;;;;;;5066297;28;20040;-63
2022/05/25 03:23:31;;;;;;;11.80;10.18;;;;;;;;;;5070925;28;20048;-63
2022/05/25 03:25:57;;;;;;;15.25;10.00;;;;;;;;;;5070884;28;20037;-63
2022/05/25 03:28:23;;;;;;;11.25;9.57;;;;;;;;;;5068113;28;20117;-63
2022/05/25 03:30:49;;;;;;;13.65;10.15;;;;;;;;;;5069376;28;20037;-63
2022/05/25 03:33:15;;;;;;;11.85;10.23;;;;;;;;;;5078884;28;20040;-63
2022/05/25 03:35:41;;;;;;;15.00;10.68;;;;;;;;;;5072534;28;20486;-63
2022/05/25 03:38:08;;;;;;;14.13;10.80;;;;;;;;;;5072362;28;20113;-63
2022/05/25 03:40:34;;;;;;;14.32;11.05;;;;;;;;;;5065789;28;20040;-63
2022/05/25 03:43:00;;;;;;;14.05;10.82;;;;;;;;;;5072211;28;20544;-63
2022/05/25 03:45:26;;;;;;;16.00;11.23;;;;;;;;;;5071012;28;20557;-63
2022/05/25 03:47:53;;;;;;;13.43;11.25;;;;;;;;;;5056495;28;20059;-63
2022/05/25 03:50:20;;;;;;;15.52;10.90;;;;;;;;;;5075558;28;20095;-63
2022/05/25 03:52:46;;;;;;;15.52;11.20;;;;;;;;;;5070054;28;20494;-63
2022/05/25 03:55:12;;;;;;;14.73;11.63;;;;;;;;;;5072160;28;20039;-63
2022/05/25 03:57:38;;;;;;;15.40;11.52;;;;;;;;;;5077996;28;20036;-63
2022/05/25 04:00:05;;;;;;;16.52;12.30;;;;;;;;;;5073547;28;20090;-63
2022/05/25 04:02:31;;;;;;;14.35;11.30;;;;;;;;;;5049323;28;20037;-63
2022/05/25 04:05:10;;;;;;;16.40;12.18;;;;;;;;;;5070614;28;20094;-63
2022/05/25 04:07:37;;;;;;;16.33;11.70;;;;;;;;;;5073586;28;20467;-63
2022/05/25 04:10:03;;;;;;;15.50;11.50;;;;;;;;;;5063907;28;20042;-63
2022/05/25 04:12:30;;;;;;;15.75;11.40;;;;;;;;;;5065296;28;20052;-63
2022/05/25 04:14:56;;;;;;;16.48;12.50;;;;;;;;;;5068711;28;20505;-63
2022/05/25 04:17:22;;;;;;;19.70;12.82;;;;;;;;;;5065756;28;20052;-63
2022/05/25 04:19:47;;;;;;;17.65;12.55;;;;;;;;;;5070022;28;20033;-63
2022/05/25 04:22:13;;;;;;;17.00;13.38;;;;;;;;;;5063201;28;20036;-63
2022/05/25 04:24:39;;;;;;;17.95;12.85;;;;;;;;;;5055060;28;20108;-63
2022/05/25 04:27:05;;;;;;;18.38;12.55;;;;;;;;;;5065361;28;20675;-63
2022/05/25 04:29:31;;;;;;;18.85;13.13;;;;;;;;;;5072025;28;20040;-63
2022/05/25 04:31:57;;;;;;;17.67;12.63;;;;;;;;;;5070014;28;20150;-63
2022/05/25 04:34:23;;;;;;;16.70;12.68;;;;;;;;;;5057732;28;20044;-63
2022/05/25 04:36:49;;;;;;;20.63;13.07;;;;;;;;;;5071263;28;20133;-63
2022/05/25 04:39:15;;;;;;;17.80;12.98;;;;;;;;;;5076024;28;20033;-63
2022/05/25 04:41:41;;;;;;;20.17;13.50;;;;;;;;;;5073505;28;20105;-63
2022/05/25 04:44:07;;;;;;;19.92;13.13;;;;;;;;;;5071323;28;20044;-63
2022/05/25 04:46:33;;;;;;;19.08;13.18;;;;;;;;;;5072011;28;20059;-63
2022/05/25 04:49:00;;;;;;;17.35;12.43;;;;;;;;;;5063636;28;20049;-63
2022/05/25 04:51:27;;;;;;;20.05;13.00;;;;;;;;;;5077700;28;20067;-63
2022/05/25 04:53:52;;;;;;;17.40;12.35;;;;;;;;;;5071542;28;20024;-63
2022/05/25 04:59:03;;;;;;;18.13;13.15;;;;;;;;;;5069763;28;20119;-63
2022/05/25 05:01:30;;;;;;;19.77;12.50;;;;;;;;;;5075933;28;20116;-63
2022/05/25 05:03:57;;;;;;;18.90;12.70;;;;;;;;;;5054250;28;20563;-63
2022/05/25 05:06:22;;;;;;;16.70;12.43;;;;;;;;;;5058928;28;20043;-64
2022/05/25 05:08:48;;;;;;;16.13;12.13;;;;;;;;;;5071359;28;20127;-63
2022/05/25 05:11:16;;;;;;;17.77;11.95;;;;;;;;;;5068058;28;20070;-63
2022/05/25 05:13:42;;;;;;;17.77;12.10;;;;;;;;;;5063208;28;20043;-63
2022/05/25 05:16:11;;;;;;;19.45;12.02;;;;;;;;;;5069935;28;20037;-63
2022/05/25 05:18:37;;;;;;;18.90;12.43;;;;;;;;;;5069696;28;20032;-63
2022/05/25 05:21:03;;;;;;;18.50;12.18;;;;;;;;;;5069140;28;20064;-63
2022/05/25 05:23:29;;;;;;;16.65;11.95;;;;;;;;;;5071714;28;20054;-63
2022/05/25 05:25:55;;;;;;;16.13;12.10;;;;;;;;;;5073350;28;20036;-63
2022/05/25 05:28:24;;;;;;;18.35;13.07;;;;;;;;;;5066949;28;20125;-63
2022/05/25 05:30:51;;;;;;;16.77;12.95;;;;;;;;;;5065356;28;20048;-64
2022/05/25 05:33:17;;;;;;;17.95;11.75;;;;;;;;;;5070976;28;20036;-63
2022/05/25 05:35:44;;;;;;;16.15;12.10;;;;;;;;;;5071323;28;20036;-63
2022/05/25 05:38:10;;;;;;;19.00;12.93;;;;;;;;;;5062950;28;20461;-63
2022/05/25 05:40:36;;;;;;;18.33;13.15;;;;;;;;;;5068662;28;20051;-63
2022/05/25 05:43:04;;;;;;;20.00;12.82;;;;;;;;;;5071196;28;20517;-64
2022/05/25 05:45:32;;;;;;;20.55;13.25;;;;;;;;;;5071855;28;20040;-63
2022/05/25 05:48:01;;;;;;;18.98;12.80;;;;;;;;;;5074225;28;20044;-63
2022/05/25 05:50:29;;;;;;;20.08;12.85;;;;;;;;;;5068547;28;20226;-64
2022/05/25 05:52:54;;;;;;;19.23;13.13;;;;;;;;;;5068414;28;20043;-63
2022/05/25 05:55:21;;;;;;;21.02;13.57;;;;;;;;;;5044310;28;20056;-63
2022/05/25 05:57:48;;;;;;;22.00;13.45;;;;;;;;;;5070698;28;20043;-64
2022/05/25 06:00:15;;;;;;;20.00;13.43;;;;;;;;;;5065809;28;20036;-63
2022/05/25 06:02:41;;;;;;;19.83;13.55;;;;;;;;;;5068125;28;20028;-63
2022/05/25 06:05:09;;;;;;;18.77;13.05;;;;;;;;;;5061942;28;20037;-64
2022/05/25 06:07:35;;;;;;;20.17;13.52;;;;;;;;;;5064691;28;20047;-63
2022/05/25 06:10:01;;;;;;;19.10;13.60;;;;;;;;;;5061658;28;20047;-63
2022/05/25 06:12:28;;;;;;;19.45;13.00;;;;;;;;;;5067283;28;20032;-64
2022/05/25 06:14:54;;;;;;;21.08;13.98;;;;;;;;;;5063063;28;20494;-64
2022/05/25 06:20:05;;;;;;;22.50;13.73;;;;;;;;;;5065927;28;20123;-64
2022/05/25 06:22:32;;;;;;;21.85;13.65;;;;;;;;;;5066945;28;20071;-63
2022/05/25 06:24:58;;;;;;;23.52;13.52;;;;;;;;;;5063272;28;20118;-63
2022/05/25 06:27:24;;;;;;;21.92;12.75;;;;;;;;;;5063520;28;20040;-63
2022/05/25 06:29:51;;;;;;;20.27;13.50;;;;;;;;;;5066300;28;20055;-64
2022/05/25 06:32:18;;;;;;;23.65;13.15;;;;;;;;;;5091850;22;20093;-61
2022/05/25 06:34:47;;;;;;;23.85;14.68;;;;;;;;;;5107489;28;20066;-62
2022/05/25 06:37:21;;;;;;;20.95;12.70;;;;;;;;;;5104449;28;20130;-61
2022/05/25 06:39:47;;;;;;;24.48;13.88;;;;;;;;;;5108083;28;20039;-61
2022/05/25 06:42:13;;;;;;;19.27;12.43;;;;;;;;;;5094582;28;20068;-61
2022/05/25 06:44:41;;;;;;;25.08;13.77;;;;;;;;;;5089498;28;20567;-62
2022/05/25 06:47:07;;;;;;;24.25;13.93;;;;;;;;;;5087199;28;20412;-62
2022/05/25 06:49:34;;;;;;;17.90;12.88;;;;;;;;;;5077352;28;20063;-61
2022/05/25 06:52:00;;;;;;;21.77;13.23;;;;;;;;;;5078453;28;20413;-62
2022/05/25 06:54:26;;;;;;;17.92;12.02;;;;;;;;;;5081556;28;20073;-62
2022/05/25 06:56:52;;;;;;;20.30;13.00;;;;;;;;;;5080094;28;20040;-62
2022/05/25 06:59:18;;;;;;;21.92;12.85;;;;;;;;;;5085281;28;20032;-62
2022/05/25 07:01:46;;;;;;;19.67;11.02;;;;;;;;;;5088338;28;20071;-62
2022/05/25 07:04:12;;;;;;;15.73;11.25;;;;;;;;;;5094937;28;20036;-62
2022/05/25 07:06:39;;;;;;;16.55;11.25;;;;;;;;;;5093126;28;20085;-61
2022/05/25 07:09:06;;;;;;;17.25;11.60;;;;;;;;;;5088545;28;20044;-62
2022/05/25 07:11:33;;;;;;;21.15;12.15;;;;;;;;;;5091879;28;20036;-62
2022/05/25 07:13:59;;;;;;;18.08;11.48;;;;;;;;;;5090293;28;20048;-62
2022/05/25 07:16:25;;;;;;;17.33;11.25;;;;;;;;;;5090614;28;20072;-62
2022/05/25 07:18:51;;;;;;;18.20;10.80;;;;;;;;;;5089697;28;20084;-62
2022/05/25 07:21:19;;;;;;;20.85;11.48;;;;;;;;;;5089258;28;20036;-63
2022/05/25 07:23:46;;;;;;;18.98;10.40;;;;;;;;;;5086304;28;20039;-62
2022/05/25 07:26:12;;;;;;;12.07;8.75;;;;;;;;;;5089725;28;20503;-62
2022/05/25 07:28:38;;;;;;;16.42;9.45;;;;;;;;;;5092740;28;20042;-61
2022/05/25 07:31:23;;;;;;;15.60;9.38;;;;;;;;;;5088221;28;20040;-62
2022/05/25 07:33:50;;;;;;;15.25;9.00;;;;;;;;;;5091211;28;20561;-62
2022/05/25 07:36:16;;;;;;;14.45;8.73;;;;;;;;;;5091298;28;20097;-62
2022/05/25 07:38:45;;;;;;;14.35;7.85;;;;;;;;;;5092777;28;20039;-61
2022/05/25 07:41:11;;;;;;;10.45;7.85;;;;;;;;;;5092778;28;20064;-62
2022/05/25 07:43:39;;;;;;;9.60;7.18;;;;;;;;;;5089993;27;20036;-61
2022/05/25 07:46:05;;;;;;;13.38;8.23;;;;;;;;;;5085442;28;20180;-62
2022/05/25 07:48:31;;;;;;;12.13;8.23;;;;;;;;;;5085354;28;20118;-62
2022/05/25 07:50:57;;;;;;;12.13;8.40;;;;;;;;;;5085625;28;20346;-62
2022/05/25 07:56:08;;;;;;;9.38;6.80;;;;;;;;;;5092676;28;20161;-62
2022/05/25 07:58:34;;;;;;;9.52;7.10;;;;;;;;;;5089173;28;20396;-62
2022/05/25 08:01:05;;;;;;;8.52;6.35;;;;;;;;;;5092189;28;20036;-62
2022/05/25 08:06:16;;;;;;;12.10;6.93;;;;;;;;;;5092819;28;20032;-62
2022/05/25 08:08:43;;;;;;;9.25;6.20;;;;;;;;;;5092646;28;20404;-61
2022/05/25 08:11:10;;;;;;;10.80;6.57;;;;;;;;;;5085928;28;20520;-62
2022/05/25 08:13:39;;;;;;;10.10;5.75;;;;;;;;;;5086029;28;20120;-62
2022/05/25 08:16:05;;;;;;;10.43;6.43;;;;;;;;;;5089622;28;20509;-62
2022/05/25 08:18:31;;;;;;;10.15;6.18;;;;;;;;;;5084146;28;20057;-62
2022/05/25 08:20:57;;;;;;;10.75;6.00;;;;;;;;;;5091830;28;20039;-61
2022/05/25 08:23:23;;;;;;;10.05;5.78;;;;;;;;;;5089723;28;20421;-62
2022/05/25 08:25:49;;;;;;;9.40;5.95;;;;;;;;;;5087801;28;20062;-62
2022/05/25 08:28:15;;;;;;;7.57;5.90;;;;;;;;;;5090587;28;20489;-62
2022/05/25 08:30:43;;;;;;;10.30;6.00;;;;;;;;;;5088396;28;20118;-61
2022/05/25 08:33:09;;;;;;;7.65;5.10;;;;;;;;;;5088041;28;20039;-61
2022/05/25 08:35:35;;;;;;;11.30;5.85;;;;;;;;;;5088373;28;20052;-62
2022/05/25 08:38:01;;;;;;;7.80;5.40;;;;;;;;;;5092087;28;20072;-61
2022/05/25 08:40:29;;;;;;;8.05;5.47;;;;;;;;;;5089549;28;20075;-61
2022/05/25 08:42:57;;;;;;;6.50;5.05;;;;;;;;;;5092630;28;20259;-61
2022/05/25 08:45:25;;;;;;;9.52;6.38;;;;;;;;;;5094250;28;20032;-61
2022/05/25 08:47:56;;;;;;;8.93;6.53;;;;;;;;;;5092419;28;20507;-62
2022/05/25 08:50:22;;;;;;;8.38;5.30;;;;;;;;;;5091111;28;20028;-61
2022/05/25 08:52:48;;;;;;;7.20;5.30;;;;;;;;;;5090333;28;20554;-61
2022/05/25 08:55:25;;;;;;;7.90;5.20;;;;;;;;;;5085920;28;20493;-61
2022/05/25 08:57:52;;;;;;;8.65;5.50;;;;;;;;;;5091206;28;20432;-62
2022/05/25 09:00:19;;;;;;;8.23;5.97;;;;;;;;;;5086652;28;20034;-62
2022/05/25 09:02:52;;;;;;;9.93;5.15;;;;;;;;;;5084910;28;20123;-61
2022/05/25 09:05:32;;;;;;;6.30;5.15;;;;;;;;;;5092713;28;20040;-62
2022/05/25 09:07:58;;;;;;;8.98;5.55;;;;;;;;;;5090236;28;20093;-61
2022/05/25 09:10:24;;;;;;;8.32;4.93;;;;;;;;;;5092830;28;20032;-61
2022/05/25 09:12:55;;;;;;;7.20;5.00;;;;;;;;;;5088127;28;20410;-61
2022/05/25 09:15:32;;;;;;;6.93;5.22;;;;;;;;;;5085359;28;20037;-61
2022/05/25 09:18:05;;;;;;;8.07;5.45;;;;;;;;;;5083263;28;20062;-61
2022/05/25 09:20:33;;;;;;;5.97;4.32;;;;;;;;;;5083459;28;20036;-61
2022/05/25 09:22:59;;;;;;;7.43;4.47;;;;;;;;;;5090631;28;20078;-60
2022/05/25 09:25:25;;;;;;;6.00;4.38;;;;;;;;;;5089466;28;20123;-61
2022/05/25 09:27:57;;;;;;;4.75;4.25;;;;;;;;;;5091163;28;20043;-61
2022/05/25 09:30:24;;;;;;;5.35;4.82;;;;;;;;;;5092423;28;20078;-60
2022/05/25 09:33:00;;;;;;;6.60;4.47;;;;;;;;;;5088257;28;20115;-61
2022/05/25 09:35:28;;;;;;;6.00;4.15;;;;;;;;;;5088729;28;20057;-61
2022/05/25 09:37:56;;;;;;;5.28;4.78;;;;;;;;;;5091304;28;20039;-61
2022/05/25 09:40:31;;;;;;;7.78;5.88;;;;;;;;;;5084127;28;20043;-61
2022/05/25 09:42:57;;;;;;;9.10;5.30;;;;;;;;;;5089869;28;20416;-61
2022/05/25 09:45:34;;;;;;;9.80;5.70;;;;;;;;;;5086386;28;20036;-61
2022/05/25 09:48:10;;;;;;;8.23;5.82;;;;;;;;;;5085614;28;20039;-62
2022/05/25 09:50:42;;;;;;;7.93;5.38;;;;;;;;;;5091235;28;20046;-61
2022/05/25 09:53:11;;;;;;;8.27;5.50;;;;;;;;;;5089344;28;20039;-62
2022/05/25 09:55:42;;;;;;;5.80;5.20;;;;;;;;;;5081979;28;20112;-61
2022/05/25 09:58:22;;;;;;;6.43;4.68;;;;;;;;;;5078451;28;20054;-61
2022/05/25 10:01:02;;;;;;;7.20;4.45;;;;;;;;;;5081249;28;20225;-61
2022/05/25 10:03:28;;;;;;;5.78;4.80;;;;;;;;;;5085251;28;20040;-61
2022/05/25 10:05:54;;;;;;;7.72;4.50;;;;;;;;;;5083994;28;20131;-61
2022/05/25 10:08:32;;;;;;;4.65;3.58;;;;;;;;;;5088271;28;20114;-62
2022/05/25 10:11:08;;;;;;;4.93;3.70;;;;;;;;;;5091123;28;20143;-61
2022/05/25 10:13:40;;;;;;;4.00;3.60;;;;;;;;;;5085975;28;20150;-61
2022/05/25 10:16:24;;;;;;;5.70;4.05;;;;;;;;;;5084301;28;20144;-60
2022/05/25 10:18:50;;;;;;;5.13;3.83;;;;;;;;;;5092106;28;20036;-61
2022/05/25 10:21:27;;;;;;;6.20;4.30;;;;;;;;;;5088888;28;20492;-61
2022/05/25 10:23:53;;;;;;;4.43;4.03;;;;;;;;;;5087797;28;20040;-61
2022/05/25 10:26:38;;;;;;;4.90;3.60;;;;;;;;;;5088290;28;20039;-61
2022/05/25 10:29:12;;;;;;;6.50;3.60;;;;;;;;;;5085972;28;20505;-61
2022/05/25 10:37:16;;;;;;;5.93;3.55;;;;;;;;;;5071025;28;20037;-61
2022/05/25 10:39:48;;;;;;;6.07;4.03;;;;;;;;;;5077782;28;20037;-61
2022/05/25 10:42:32;;;;;;;6.47;4.20;;;;;;;;;;5090721;28;20451;-60
2022/05/25 10:45:20;;;;;;;6.95;4.40;;;;;;;;;;5092953;28;20058;-60
2022/05/25 10:47:52;;;;;;;5.13;4.63;;;;;;;;;;5090253;28;20044;-61
2022/05/25 10:50:30;;;;;;;4.75;4.15;;;;;;;;;;5093546;28;20035;-60
2022/05/25 10:53:08;;;;;;;5.70;4.20;;;;;;;;;;5093544;28;20044;-60
2022/05/25 10:55:41;;;;;;;10.07;4.10;;;;;;;;;;5086638;28;20123;-60
2022/05/25 10:58:33;;;;;;;6.50;3.60;;;;;;;;;;5086343;28;20485;-60
2022/05/25 11:01:09;;;;;;;12.52;4.38;;;;;;;;;;5089529;28;20032;-61
2022/05/25 11:03:50;;;;;;;4.80;4.35;;;;;;;;;;5087426;28;20036;-60
2022/05/25 11:06:27;;;;;;;6.63;5.30;;;;;;;;;;5091825;28;20043;-61
2022/05/25 11:08:59;;;;;;;7.45;4.70;;;;;;;;;;5091853;28;20447;-61
2022/05/25 11:11:25;;;;;;;6.32;5.00;;;;;;;;;;5088401;28;20036;-60
2022/05/25 11:14:10;;;;;;;5.75;5.25;;;;;;;;;;5089953;28;20440;-61
2022/05/25 11:16:51;;;;;;;5.80;5.00;;;;;;;;;;5090059;28;20048;-61
2022/05/25 11:19:17;;;;;;;;;;;;;;;;;;5080754;28;20061;-61
2022/05/25 11:21:49;;;;;;;5.45;4.38;;;;;;;;;;5089060;28;19920;-61
2022/05/25 11:24:24;;;;;;;5.20;4.45;;;;;;;;;;5091822;28;20040;-61
2022/05/25 11:26:53;;;;;;;7.70;5.03;;;;;;;;;;5089620;28;20093;-61
2022/05/25 11:29:28;;;;;;;8.13;5.47;;;;;;;;;;5084885;28;20048;-62
2022/05/25 11:32:03;;;;;;;7.07;6.15;;;;;;;;;;5090089;28;20071;-62
2022/05/25 11:34:45;;;;;;;7.45;6.45;;;;;;;;;;5087296;28;20462;-61
2022/05/25 11:37:14;;;;;;;7.90;6.93;;;;;;;;;;5090562;28;20044;-61
2022/05/25 11:39:48;;;;;;;7.82;6.60;;;;;;;;;;5092127;28;20427;-61
2022/05/25 11:42:49;;;;;;;7.95;6.40;;;;;;;;;;5093737;28;20034;-61
2022/05/25 11:45:15;;;;;;;;;;;;;;;;;;5027414;28;20076;-61
2022/05/25 11:47:52;;;;;;;8.98;5.00;;;;;;;;;;5074370;28;20369;-61
2022/05/25 11:50:24;;;;;;;6.70;4.80;;;;;;;;;;5092823;28;20055;-61
2022/05/25 11:52:58;;;;;;;6.68;4.32;;;;;;;;;;5087994;28;20074;-61
2022/05/25 11:55:30;;;;;;;8.18;4.70;;;;;;;;;;5088806;28;20420;-62
2022/05/25 11:57:56;;;;;;;7.63;4.93;;;;;;;;;;5093292;28;20032;-61
2022/05/25 12:00:45;;;;;;;8.65;5.15;;;;;;;;;;5092980;28;20028;-61
2022/05/25 12:03:20;;;;;;;7.07;5.70;;;;;;;;;;5091472;28;20051;-61
2022/05/25 12:05:55;;;;;;;9.10;5.80;;;;;;;;;;5090201;28;20135;-61
2022/05/25 12:08:40;;;;;;;8.52;5.35;;;;;;;;;;5091949;28;20046;-61
2022/05/25 12:11:27;;;;;;;6.80;5.78;;;;;;;;;;5093453;28;20047;-61
2022/05/25 12:14:05;;;;;;;7.47;6.28;;;;;;;;;;5091006;28;20044;-62
2022/05/25 12:16:35;;;;;;;8.55;5.07;;;;;;;;;;5093897;28;20036;-62
2022/05/25 12:19:01;;;;;;;9.40;5.23;;;;;;;;;;5092136;28;20119;-61
2022/05/25 12:21:31;;;;;;;6.75;4.20;;;;;;;;;;5089436;28;20131;-61
2022/05/25 12:24:01;;;;;;;6.07;4.00;;;;;;;;;;5093270;28;20123;-61
2022/05/25 12:26:31;;;;;;;5.68;4.03;;;;;;;;;;5089290;28;20585;-61
2022/05/25 12:29:09;;;;;;;4.72;4.07;;;;;;;;;;5093118;28;20040;-61
2022/05/25 12:31:36;;;;;;;6.55;4.28;;;;;;;;;;5090558;28;20051;-60
2022/05/25 12:34:02;;;;;;;7.60;5.07;;;;;;;;;;5122450;22;20047;-64
2022/05/25 12:36:28;;;;;;;5.28;4.78;;;;;;;;;;5108199;28;20042;-64
2022/05/25 12:38:54;;;;;;;9.13;4.95;;;;;;;;;;5110705;28;20074;-64
2022/05/25 12:41:25;;;;;;;6.75;4.90;;;;;;;;;;5104938;28;20047;-64
2022/05/25 12:43:53;;;;;;;8.88;5.18;;;;;;;;;;5111104;28;20047;-64
2022/05/25 12:49:32;;;;;;;7.97;5.18;;;;;;;;;;5077944;28;20501;-64
2022/05/25 12:51:58;;;;;;;11.35;5.32;;;;;;;;;;5108543;28;20500;-64
2022/05/25 12:54:32;;;;;;;6.75;4.70;;;;;;;;;;5108862;28;20036;-64
2022/05/25 12:57:00;;;;;;;7.32;4.38;;;;;;;;;;5112322;28;20051;-64
2022/05/25 12:59:28;;;;;;;7.50;4.72;;;;;;;;;;5099684;28;20032;-65
2022/05/25 13:02:11;;;;;;;6.22;4.03;;;;;;;;;;5102587;28;20134;-64
2022/05/25 13:04:43;;;;;;;8.30;3.58;;;;;;;;;;5101754;28;20110;-64
2022/05/25 13:07:20;;;;;;;7.57;3.38;;;;;;;;;;5099075;28;20067;-64
2022/05/25 13:09:47;;;;;;;5.90;3.20;;;;;;;;;;5111499;28;20036;-64
2022/05/25 13:12:31;;;;;;;6.95;2.70;;;;;;;;;;5110380;28;20039;-64
2022/05/25 13:14:58;;;;;;;4.95;2.50;;;;;;;;;;5110147;28;20551;-64
2022/05/25 13:17:47;;;;;;;4.93;2.50;;;;;;;;;;5111038;28;20118;-64
2022/05/25 13:20:46;;;;;;;4.22;1.80;;;;;;;;;;5101835;28;20531;-65
2022/05/25 13:23:32;;;;;;;2.97;1.48;;;;;;;;;;5109674;28;20122;-65
2022/05/25 13:26:02;;;;;;;6.18;1.55;;;;;;;;;;5110627;28;20035;-64
2022/05/25 13:28:33;;;;;;;3.20;1.20;;;;;;;;;;5110743;28;20071;-65
2022/05/25 13:31:28;;;;;;;4.38;1.30;;;;;;;;;;5112647;27;20042;-64
2022/05/25 13:33:56;;;;;;;1.90;1.00;;;;;;;;;;5088477;28;20427;-64
2022/05/25 13:36:24;;;;;;;6.20;1.30;;;;;;;;;;5111918;28;20051;-64
2022/05/25 13:38:55;;;;;;;7.97;1.38;;;;;;;;;;5112685;28;20039;-64
2022/05/25 13:41:30;;;;;;;2.72;1.08;;;;;;;;;;5105761;28;20118;-64
2022/05/25 13:43:56;;;;;;;4.82;1.30;;;;;;;;;;5112381;28;20081;-64
2022/05/25 13:46:29;;;;;;;3.08;1.20;;;;;;;;;;5104330;28;20043;-64
2022/05/25 13:48:55;;;;;;;2.80;1.25;;;;;;;;;;5110569;28;20041;-64
2022/05/25 13:51:21;;;;;;;3.97;1.20;;;;;;;;;;5110335;28;20118;-64
2022/05/25 13:53:47;;;;;;;4.63;1.10;;;;;;;;;;5106738;28;20101;-64
2022/05/25 13:56:18;;;;;;;7.05;1.25;;;;;;;;;;5111912;28;20458;-64
2022/05/25 13:58:44;;;;;;;;;;;;;;;;;;5111060;28;20038;-65
2022/05/25 14:01:12;;;;;;;6.03;1.20;;;;;;;;;;5110802;28;19986;-65
2022/05/25 14:03:39;;;;;;;3.85;1.05;;;;;;;;;;5112284;28;20045;-64
2022/05/25 14:06:08;;;;;;;1.88;0.93;;;;;;;;;;5110379;28;20159;-64
2022/05/25 14:11:26;;;;;;;4.55;1.10;;;;;;;;;;5108094;28;20043;-64
2022/05/25 14:13:53;;;;;;;2.88;1.23;;;;;;;;;;5109130;28;20126;-64
2022/05/25 14:16:24;;;;;;;3.35;0.90;;;;;;;;;;5107315;28;20071;-64
2022/05/25 14:18:54;;;;;;;4.20;1.30;;;;;;;;;;5112424;28;20044;-64
2022/05/25 14:21:34;;;;;;;6.07;1.17;;;;;;;;;;5110826;28;20031;-64
2022/05/25 14:24:03;;;;;;;2.67;0.82;;;;;;;;;;5104027;28;20027;-65
2022/05/25 14:26:32;;;;;;;2.33;1.00;;;;;;;;;;5106405;28;20048;-65
2022/05/25 14:29:02;;;;;;;3.17;1.17;;;;;;;;;;5110193;28;20047;-65
2022/05/25 14:31:28;;;;;;;6.95;0.90;;;;;;;;;;5111689;28;20039;-64
2022/05/25 14:34:04;;;;;;;4.53;0.98;;;;;;;;;;5112087;28;20059;-64
2022/05/25 14:36:31;;;;;;;3.97;0.80;;;;;;;;;;5104470;28;20087;-64
2022/05/25 14:38:57;;;;;;;3.72;1.10;;;;;;;;;;5109859;28;20040;-65
2022/05/25 14:41:24;;;;;;;2.25;1.00;;;;;;;;;;5107802;28;20031;-64
2022/05/25 14:43:51;;;;;;;2.67;1.00;;;;;;;;;;5110837;28;20508;-64
2022/05/25 14:46:21;;;;;;;7.18;1.00;;;;;;;;;;5107448;28;20043;-64
2022/05/25 14:48:49;;;;;;;5.95;0.88;;;;;;;;;;5104199;28;20500;-64
2022/05/25 14:51:15;;;;;;;1.45;0.68;;;;;;;;;;5109299;28;20137;-64
2022/05/25 14:53:41;;;;;;;4.45;0.88;;;;;;;;;;5110032;28;20568;-64
2022/05/25 14:56:16;;;;;;;4.85;1.17;;;;;;;;;;5106279;28;20052;-64
2022/05/25 14:58:47;;;;;;;3.88;1.13;;;;;;;;;;5102830;28;20031;-64
2022/05/25 15:01:14;;;;;;;3.88;0.80;;;;;;;;;;5101287;28;20031;-64
2022/05/25 15:03:58;;;;;;;5.05;0.85;;;;;;;;;;5101576;28;20035;-65
2022/05/25 15:06:43;;;;;;;3.95;0.80;;;;;;;;;;5103689;28;20031;-64
2022/05/25 15:09:14;;;;;;;3.95;1.00;;;;;;;;;;5109610;28;20035;-64
2022/05/25 15:11:40;;;;;;;2.03;0.80;;;;;;;;;;5110777;28;20043;-64
2022/05/25 15:19:40;;;;;;;5.30;1.02;;;;;;;;;;5111182;28;20031;-64
2022/05/25 15:22:10;;;;;;;1.75;0.88;;;;;;;;;;5105307;28;20499;-64